Airfield :
LOGIN :

Register | Disclaimer

   EN    FR    IT 

 










Legend :    VFR   Marginal VFR   IFR   Intensive IFR   Very Intensive IFR
Visi :
Ceiling :
>= 8 km
>= 3000ft
5 to 8 km
1000 to 3000 ft
1500m to 5 km
500 to 1000 ft
800 to 1500m
200 to 500 ft
< 800m
< 200 ft
Symbols :   Thunderstorms  Fog  Heavy snow  Heavy precipitations  Wind > 20 kt
SIGMETs :     Misc.  Thunderstorms  Icing  Turbulence  Mountain Waves  Volcanic Ashes







- Airport Elevation : 466 ft


LHPA - Pápa

CURRENT METAR :
  • 181245Z 15006KT 110V200 CAVOK 26/12 Q1021 NOSIG RMK BLU

EXPIRED METARs :
  • 181215Z 16008KT 130V200 CAVOK 26/11 Q1021 NOSIG RMK BLU
  • 181145Z 13010KT 110V170 CAVOK 26/11 Q1021 NOSIG RMK BLU
  • 181115Z 16010KT 120V210 CAVOK 26/11 Q1021 NOSIG RMK BLU
  • 181045Z 17010KT 140V210 CAVOK 26/10 Q1022 NOSIG RMK BLU
  • 181015Z 18012KT 140V210 CAVOK 25/09 Q1022 NOSIG RMK BLU

TAF TAF LHPA
Valid from the 18 at 12:00 until the 19 at 12:00 UTC


181115Z 1812/1912 17010KT CAVOK
BECMG 1814/1816 15006KT
BECMG 1817/1820 VRB03KT
No reported NOTAMs for that airfield.



MET'MAP, your aeronautical weather chart ! - Copyright ORBIFLY December 2007 - Disclaimer

ORBIFLY MET'MAP TEAM :

Programming & Development : Alexandra Zaïnal
Concept & Development : Baudouin d'Aumeries
Co-Development & Prog : Marc-Olivier Méhu
Technical & hardware support : Manuel Goepfert

Contact : metmap@orbifly.com




SOURCES & CREDITS :

   NOAA